createdAt,value
2022-11-11T00:01:15.066Z,99580.19
2022-11-11T00:03:21.191Z,99580.31
2022-11-11T00:05:26.036Z,99566.78
2022-11-11T00:07:27.715Z,99568.75
2022-11-11T00:09:29.476Z,99568.75
2022-11-11T00:11:31.175Z,99575.06
2022-11-11T00:13:33.277Z,99571.44
2022-11-11T00:15:37.630Z,99561.66
2022-11-11T00:17:39.292Z,99565.19
2022-11-11T00:19:40.976Z,99571.53
2022-11-11T00:21:42.701Z,99565.31
2022-11-11T00:23:44.450Z,99560.91
2022-11-11T00:25:46.186Z,99562.75
2022-11-11T00:27:48.042Z,99561.91
2022-11-11T00:29:49.772Z,99563.59
2022-11-11T00:31:51.513Z,99560.91
2022-11-11T00:33:53.556Z,99561.91
2022-11-11T00:35:55.356Z,99566.28
2022-11-11T00:38:04.327Z,99568.97
2022-11-11T00:40:06.771Z,99564.44
2022-11-11T00:42:08.481Z,99559.97
2022-11-11T00:44:10.220Z,99551.91
2022-11-11T00:46:12.376Z,99554.59
2022-11-11T00:48:14.157Z,99554.59
2022-11-11T00:50:20.538Z,99543.00
2022-11-11T00:52:22.309Z,99554.59
2022-11-11T00:54:24.086Z,99555.56
2022-11-11T00:56:25.845Z,99550.19
2022-11-11T00:58:28.088Z,99552.13
2022-11-11T01:00:30.255Z,99555.69
2022-11-11T01:02:32.165Z,99565.53
2022-11-11T01:04:33.956Z,99555.81
2022-11-11T01:06:35.813Z,99551.41
2022-11-11T01:08:37.599Z,99544.34
2022-11-11T01:10:39.539Z,99554.09
2022-11-11T01:12:41.437Z,99550.56
2022-11-11T01:14:43.156Z,99551.41
2022-11-11T01:16:44.894Z,99553.13
2022-11-11T01:18:46.758Z,99553.97
2022-11-11T01:20:48.739Z,99558.50
2022-11-11T01:22:50.902Z,99549.59
2022-11-11T01:24:52.652Z,99555.69
2022-11-11T01:26:54.435Z,99546.78
2022-11-11T01:28:56.660Z,99543.25
2022-11-11T01:31:02.981Z,99549.44
2022-11-11T01:33:05.046Z,99546.03
2022-11-11T01:35:07.625Z,99557.63
2022-11-11T01:37:09.356Z,99551.41
2022-11-11T01:39:11.106Z,99558.59
2022-11-11T01:41:14.066Z,99553.13
2022-11-11T01:43:18.687Z,99547.88
2022-11-11T01:45:46.500Z,99562.13
2022-11-11T01:48:09.091Z,99561.28
2022-11-11T01:50:09.937Z,99556.06
2022-11-11T01:52:27.237Z,99551.66
2022-11-11T01:54:48.783Z,99558.00
2022-11-11T01:56:54.347Z,99551.66
2022-11-11T01:58:57.816Z,99557.16
2022-11-11T02:00:59.522Z,99549.94
2022-11-11T02:03:08.543Z,99553.47
2022-11-11T02:05:11.996Z,99551.66
2022-11-11T02:07:13.801Z,99549.94
2022-11-11T02:09:15.731Z,99553.59
2022-11-11T02:11:18.101Z,99555.41
2022-11-11T02:13:20.156Z,99553.59
2022-11-11T02:15:22.130Z,99553.59
2022-11-11T02:17:24.284Z,99559.84
2022-11-11T02:19:36.137Z,99553.59
2022-11-11T02:21:42.538Z,99558.00
2022-11-11T02:24:06.898Z,99550.91
2022-11-11T02:26:08.623Z,99545.53
2022-11-11T02:28:10.380Z,99540.06
2022-11-11T02:30:12.275Z,99548.00
2022-11-11T02:32:14.038Z,99539.97
2022-11-11T02:34:16.053Z,99542.66
2022-11-11T02:36:17.851Z,99540.81
2022-11-11T02:38:19.569Z,99549.69
2022-11-11T02:40:26.475Z,99541.66
2022-11-11T02:42:28.244Z,99547.03
2022-11-11T02:44:30.096Z,99553.22
2022-11-11T02:46:31.799Z,99557.75
2022-11-11T02:48:33.744Z,99558.59
2022-11-11T02:50:35.467Z,99554.09
2022-11-11T02:52:37.355Z,99555.06
2022-11-11T02:54:39.060Z,99553.38
2022-11-11T02:56:40.827Z,99552.38
2022-11-11T02:58:42.519Z,99550.56
2022-11-11T03:00:44.345Z,99560.31
2022-11-11T03:02:46.252Z,99552.38
2022-11-11T03:04:48.081Z,99544.34
2022-11-11T03:06:49.971Z,99538.97
2022-11-11T03:08:52.089Z,99545.44
2022-11-11T03:10:53.960Z,99549.94
2022-11-11T03:12:56.623Z,99544.69
2022-11-11T03:14:58.458Z,99549.22
2022-11-11T03:17:00.379Z,99546.53
2022-11-11T03:19:02.171Z,99547.38
2022-11-11T03:21:29.547Z,99545.53
2022-11-11T03:23:25.956Z,99547.38
2022-11-11T03:25:27.964Z,99553.72
2022-11-11T03:27:29.598Z,99550.16
2022-11-11T03:29:31.327Z,99549.31
2022-11-11T03:31:33.036Z,99550.16
2022-11-11T03:33:34.686Z,99557.25
2022-11-11T03:35:36.601Z,99555.53
2022-11-11T03:37:38.267Z,99561.78
2022-11-11T03:39:39.956Z,99562.72
2022-11-11T03:41:41.735Z,99560.03
2022-11-11T03:43:43.390Z,99564.56
2022-11-11T03:45:45.406Z,99562.88
2022-11-11T03:47:47.241Z,99562.00
2022-11-11T03:49:48.936Z,99560.19
2022-11-11T03:51:51.251Z,99555.78
2022-11-11T03:53:53.086Z,99561.16
2022-11-11T03:55:54.849Z,99550.41
2022-11-11T03:57:56.570Z,99559.31
2022-11-11T03:59:58.354Z,99562.88
2022-11-11T04:02:00.142Z,99555.78
2022-11-11T04:04:01.896Z,99562.63
2022-11-11T04:06:04.026Z,99567.63
2022-11-11T04:08:05.783Z,99563.75
2022-11-11T04:10:07.785Z,99558.88
2022-11-11T04:12:09.479Z,99564.81
2022-11-11T04:14:12.642Z,99560.97
2022-11-11T04:16:14.428Z,99570.34
2022-11-11T04:18:16.124Z,99570.72
2022-11-11T04:20:17.934Z,99559.78
2022-11-11T04:22:19.682Z,99571.94
2022-11-11T04:24:21.606Z,99566.34
2022-11-11T04:26:23.334Z,99566.09
2022-11-11T04:28:25.035Z,99569.53
2022-11-11T04:30:26.750Z,99580.00
2022-11-11T04:32:28.698Z,99571.84
2022-11-11T04:34:30.448Z,99576.13
2022-11-11T04:36:32.202Z,99588.69
2022-11-11T04:38:33.980Z,99577.81
2022-11-11T04:40:35.694Z,99590.28
2022-11-11T04:42:37.517Z,99592.81
2022-11-11T04:44:39.145Z,99591.97
2022-11-11T04:46:40.803Z,99595.38
2022-11-11T04:48:42.419Z,99601.84
2022-11-11T04:50:44.275Z,99593.31
2022-11-11T04:52:45.975Z,99603.44
2022-11-11T04:54:47.648Z,99600.25
2022-11-11T04:56:49.340Z,99593.41
2022-11-11T04:58:51.000Z,99595.38
2022-11-11T05:00:52.818Z,99600.13
2022-11-11T05:02:55.220Z,99598.56
2022-11-11T05:04:56.925Z,99605.13
2022-11-11T05:06:59.780Z,99607.06
2022-11-11T05:09:01.669Z,99601.09
2022-11-11T05:11:03.341Z,99609.38
2022-11-11T05:13:05.181Z,99607.75
2022-11-11T05:15:07.390Z,99600.69
2022-11-11T05:17:09.243Z,99599.94
2022-11-11T05:19:11.761Z,99606.31
2022-11-11T05:21:34.080Z,99609.19
2022-11-11T05:23:35.789Z,99607.59
2022-11-11T05:25:37.486Z,99607.72
2022-11-11T05:27:39.385Z,99604.31
2022-11-11T05:29:41.016Z,99610.66
2022-11-11T05:31:44.494Z,99614.31
2022-11-11T05:33:49.326Z,99605.53
2022-11-11T05:35:51.018Z,99614.53
2022-11-11T05:37:52.713Z,99614.53
2022-11-11T05:39:54.424Z,99621.88
2022-11-11T05:41:56.098Z,99621.88
2022-11-11T05:43:57.790Z,99623.81
2022-11-11T05:45:59.384Z,99624.66
2022-11-11T05:48:02.073Z,99623.81
2022-11-11T05:50:03.905Z,99623.06
2022-11-11T05:52:05.897Z,99632.06
2022-11-11T05:54:07.568Z,99627.69
2022-11-11T05:56:09.301Z,99625.00
2022-11-11T05:58:11.004Z,99631.34
2022-11-11T06:00:13.290Z,99629.63
2022-11-11T06:02:14.942Z,99637.56
2022-11-11T06:04:18.425Z,99636.72
2022-11-11T06:06:20.389Z,99631.44
2022-11-11T06:08:22.094Z,99634.97
2022-11-11T06:10:23.806Z,99637.78
2022-11-11T06:12:25.468Z,99645.94
2022-11-11T06:14:27.163Z,99640.59
2022-11-11T06:16:28.791Z,99645.94
2022-11-11T06:18:31.431Z,99642.41
2022-11-11T06:20:33.410Z,99652.25
2022-11-11T06:22:35.084Z,99645.22
2022-11-11T06:24:36.742Z,99646.16
2022-11-11T06:26:38.399Z,99646.16
2022-11-11T06:28:45.122Z,99652.50
2022-11-11T06:30:50.676Z,99660.56
2022-11-11T06:32:53.150Z,99648.13
2022-11-11T06:34:54.820Z,99654.44
2022-11-11T06:36:56.524Z,99652.63
2022-11-11T06:38:58.129Z,99651.66
2022-11-11T06:40:59.836Z,99659.81
2022-11-11T06:43:01.627Z,99662.50
2022-11-11T06:45:03.697Z,99660.78
2022-11-11T06:47:05.364Z,99674.28
2022-11-11T06:49:07.078Z,99668.09
2022-11-11T06:51:09.794Z,99663.69
2022-11-11T06:53:15.706Z,99666.34
2022-11-11T06:55:17.304Z,99659.31
2022-11-11T06:57:18.933Z,99657.59
2022-11-11T06:59:20.650Z,99656.63
2022-11-11T07:01:22.345Z,99665.66
2022-11-11T07:03:25.773Z,99657.59
2022-11-11T07:05:27.698Z,99663.91
2022-11-11T07:07:29.358Z,99668.34
2022-11-11T07:09:30.987Z,99673.69
2022-11-11T07:11:32.593Z,99669.19
2022-11-11T07:13:34.297Z,99661.97
2022-11-11T07:15:36.659Z,99665.66
2022-11-11T07:17:38.347Z,99669.28
2022-11-11T07:19:40.064Z,99665.75
2022-11-11T07:21:41.786Z,99662.22
2022-11-11T07:23:43.431Z,99668.53
2022-11-11T07:25:45.037Z,99675.63
2022-11-11T07:27:46.739Z,99686.44
2022-11-11T07:29:48.362Z,99680.09
2022-11-11T07:31:50.067Z,99686.56
2022-11-11T07:33:51.726Z,99693.66
2022-11-11T07:35:53.384Z,99691.91
2022-11-11T07:37:55.037Z,99692.78
2022-11-11T07:39:56.731Z,99701.69
2022-11-11T07:41:58.343Z,99697.28
2022-11-11T07:43:59.981Z,99693.84
2022-11-11T07:46:01.654Z,99701.88
2022-11-11T07:48:03.391Z,99699.22
2022-11-11T07:50:07.993Z,99699.22
2022-11-11T07:52:10.149Z,99693.84
2022-11-11T07:54:11.833Z,99699.22
2022-11-11T07:56:13.710Z,99708.22
2022-11-11T07:58:15.297Z,99703.84
2022-11-11T08:00:17.474Z,99701.19
2022-11-11T08:02:19.175Z,99706.53
2022-11-11T08:04:20.823Z,99708.22
2022-11-11T08:06:22.702Z,99708.22
2022-11-11T08:08:24.639Z,99709.09
2022-11-11T08:10:26.542Z,99694.94
2022-11-11T08:12:28.222Z,99698.50
2022-11-11T08:14:29.833Z,99692.16
2022-11-11T08:16:31.513Z,99694.84
2022-11-11T08:18:33.538Z,99693.97
2022-11-11T08:20:38.348Z,99679.75
2022-11-11T08:23:01.197Z,99685.09
2022-11-11T08:25:10.607Z,99683.25
2022-11-11T08:27:12.454Z,99674.38
2022-11-11T08:29:14.141Z,99675.31
2022-11-11T08:31:15.780Z,99673.63
2022-11-11T08:33:34.696Z,99676.31
2022-11-11T08:35:36.870Z,99679.94
2022-11-11T08:37:38.594Z,99679.94
2022-11-11T08:39:40.293Z,99674.47
2022-11-11T08:41:42.006Z,99670.94
2022-11-11T08:43:43.690Z,99660.22
2022-11-11T08:45:45.379Z,99670.09
2022-11-11T08:47:47.099Z,99661.94
2022-11-11T08:49:48.856Z,99672.66
2022-11-11T08:51:50.553Z,99683.38
2022-11-11T08:53:52.265Z,99674.38
2022-11-11T08:55:53.949Z,99671.69
2022-11-11T08:58:03.415Z,99674.38
2022-11-11T09:00:05.867Z,99673.50
2022-11-11T09:02:12.445Z,99667.28
2022-11-11T09:04:43.138Z,99662.78
2022-11-11T09:06:35.780Z,99672.66
2022-11-11T09:08:37.575Z,99678.84
2022-11-11T09:10:39.372Z,99676.16
2022-11-11T09:12:41.052Z,99683.38
2022-11-11T09:14:42.779Z,99687.03
2022-11-11T09:16:44.468Z,99690.47
2022-11-11T09:18:46.510Z,99683.38
2022-11-11T09:20:48.219Z,99690.56
2022-11-11T09:22:49.931Z,99684.34
2022-11-11T09:24:51.635Z,99703.97
2022-11-11T09:26:53.450Z,99703.13
2022-11-11T09:28:55.113Z,99696.03
2022-11-11T09:31:16.515Z,99687.03
2022-11-11T09:33:20.363Z,99686.19
2022-11-11T09:35:22.068Z,99699.69
2022-11-11T09:37:23.915Z,99705.03
2022-11-11T09:39:25.627Z,99702.38
2022-11-11T09:41:45.570Z,99704.19
2022-11-11T09:43:55.002Z,99700.63
2022-11-11T09:46:11.111Z,99702.47
2022-11-11T09:48:51.046Z,99703.31
2022-11-11T09:50:54.714Z,99700.63
2022-11-11T09:53:34.861Z,99707.81
2022-11-11T09:55:39.149Z,99699.78
2022-11-11T09:57:44.011Z,99708.69
2022-11-11T09:59:48.272Z,99698.09
2022-11-11T10:01:57.200Z,99703.44
2022-11-11T10:04:02.356Z,99708.69
2022-11-11T10:06:09.752Z,99709.66
2022-11-11T10:08:27.947Z,99710.50
2022-11-11T10:10:59.329Z,99714.03
2022-11-11T10:13:00.994Z,99715.00
2022-11-11T10:15:05.016Z,99718.69
2022-11-11T10:17:12.080Z,99721.34
2022-11-11T10:19:28.301Z,99721.34
2022-11-11T10:22:05.850Z,99721.34
2022-11-11T10:24:01.271Z,99720.28
2022-11-11T10:26:07.246Z,99722.06
2022-11-11T10:28:09.707Z,99734.63
2022-11-11T10:30:31.625Z,99733.03
2022-11-11T10:32:34.538Z,99743.75
2022-11-11T10:34:36.436Z,99740.31
2022-11-11T10:37:15.080Z,99755.44
2022-11-11T10:39:21.476Z,99749.34
2022-11-11T10:41:40.334Z,99752.03
2022-11-11T10:43:44.966Z,99751.03
2022-11-11T10:46:01.181Z,99754.56
2022-11-11T10:48:10.554Z,99751.03
2022-11-11T10:50:38.666Z,99744.72
2022-11-11T10:52:42.108Z,99753.72
2022-11-11T10:54:57.974Z,99747.50
2022-11-11T10:57:15.191Z,99744.72
2022-11-11T10:59:20.081Z,99746.66
2022-11-11T11:01:28.553Z,99753.72
2022-11-11T11:03:37.699Z,99755.44
2022-11-11T11:05:48.322Z,99746.66
2022-11-11T11:07:51.712Z,99744.84
2022-11-11T11:10:05.775Z,99761.88
2022-11-11T11:12:35.828Z,99763.59
2022-11-11T11:14:58.970Z,99767.13
2022-11-11T11:17:04.586Z,99766.16
2022-11-11T11:19:22.623Z,99763.50
2022-11-11T11:21:24.293Z,99775.16
2022-11-11T11:23:44.700Z,99768.84
2022-11-11T11:25:52.881Z,99771.53
2022-11-11T11:27:54.617Z,99776.13
2022-11-11T11:29:56.292Z,99787.81
2022-11-11T11:32:11.906Z,99788.69
2022-11-11T11:34:13.575Z,99780.75
2022-11-11T11:36:18.439Z,99776.38
2022-11-11T11:38:20.098Z,99773.69
2022-11-11T11:40:21.747Z,99781.81
2022-11-11T11:42:32.366Z,99772.81
2022-11-11T11:44:35.536Z,99771.97
2022-11-11T11:46:42.660Z,99770.03
2022-11-11T11:49:04.468Z,99771.97
2022-11-11T11:51:32.844Z,99771.00
2022-11-11T11:53:43.975Z,99763.91
2022-11-11T11:55:55.202Z,99758.56
2022-11-11T11:58:05.582Z,99757.63
2022-11-11T12:00:16.940Z,99759.31
2022-11-11T12:02:33.031Z,99766.38
2022-11-11T12:04:50.363Z,99752.78
2022-11-11T12:07:09.447Z,99754.97
2022-11-11T12:09:23.095Z,99752.63
2022-11-11T12:11:28.751Z,99755.38
2022-11-11T12:13:33.334Z,99749.53
2022-11-11T12:15:39.881Z,99748.84
2022-11-11T12:17:50.588Z,99750.09
2022-11-11T12:20:16.361Z,99737.09
2022-11-11T12:22:25.972Z,99733.81
2022-11-11T12:24:33.178Z,99736.69
2022-11-11T12:26:59.671Z,99740.50
2022-11-11T12:29:23.499Z,99738.97
2022-11-11T12:31:40.831Z,99739.34
2022-11-11T12:33:48.482Z,99745.94
2022-11-11T12:35:59.082Z,99740.97
2022-11-11T12:38:18.045Z,99728.88
2022-11-11T12:41:27.537Z,99737.44
2022-11-11T12:43:50.682Z,99737.19
2022-11-11T12:46:11.490Z,99731.44
2022-11-11T12:49:01.225Z,99728.28
2022-11-11T12:51:26.976Z,99732.09
2022-11-11T12:53:34.192Z,99736.13
2022-11-11T12:56:01.523Z,99732.09
2022-11-11T12:58:09.082Z,99729.94
2022-11-11T13:00:19.379Z,99736.03
2022-11-11T13:02:32.640Z,99735.16
2022-11-11T13:04:49.801Z,99725.28
2022-11-11T13:07:05.722Z,99736.03
2022-11-11T13:09:23.769Z,99733.34
2022-11-11T13:11:37.021Z,99735.03
2022-11-11T13:14:04.623Z,99736.03
2022-11-11T13:16:08.869Z,99736.88
2022-11-11T13:18:20.625Z,99734.31
2022-11-11T13:20:31.358Z,99725.28
2022-11-11T13:22:33.064Z,99778.16
2022-11-11T13:24:34.867Z,99731.50
2022-11-11T13:26:57.565Z,99739.44
2022-11-11T13:29:07.834Z,99739.19
2022-11-11T13:31:32.045Z,99733.81
2022-11-11T13:33:40.533Z,99734.56
2022-11-11T13:36:02.442Z,99736.25
2022-11-11T13:38:04.369Z,99729.91
2022-11-11T13:40:08.553Z,99739.56
2022-11-11T13:42:10.584Z,99748.47
2022-11-11T13:44:20.378Z,99752.75
2022-11-11T13:46:29.447Z,99740.16
2022-11-11T13:48:35.662Z,99738.22
2022-11-11T13:50:38.206Z,99741.63
2022-11-11T13:52:44.932Z,99739.78
2022-11-11T13:54:51.708Z,99729.78
2022-11-11T13:56:53.592Z,99741.13
2022-11-11T13:58:55.407Z,99732.09
2022-11-11T14:01:07.657Z,99731.84
2022-11-11T14:03:18.212Z,99734.41
2022-11-11T14:05:21.380Z,99734.25
2022-11-11T14:07:44.917Z,99726.94
2022-11-11T14:09:59.977Z,99728.50
2022-11-11T14:12:36.693Z,99726.56
2022-11-11T14:14:38.247Z,99727.19
2022-11-11T14:16:39.829Z,99721.53
2022-11-11T14:18:42.601Z,99731.19
2022-11-11T14:20:53.252Z,99732.75
2022-11-11T14:22:54.938Z,99728.13
2022-11-11T14:24:56.757Z,99727.00
2022-11-11T14:27:02.916Z,99716.03
2022-11-11T14:29:04.582Z,99713.19
2022-11-11T14:31:15.283Z,99701.47
2022-11-11T14:33:50.106Z,99700.38
2022-11-11T14:36:01.687Z,99708.44
2022-11-11T14:38:30.689Z,99707.59
2022-11-11T14:40:32.985Z,99673.50
2022-11-11T14:42:34.581Z,99712.97
2022-11-11T14:44:36.151Z,99709.31
2022-11-11T14:47:03.388Z,99711.50
2022-11-11T14:49:05.140Z,99709.53
2022-11-11T14:51:38.798Z,99710.16
2022-11-11T14:53:40.528Z,99706.97
2022-11-11T14:55:42.247Z,99707.53
2022-11-11T14:58:10.679Z,99700.09
2022-11-11T15:00:23.561Z,99705.81
2022-11-11T15:02:31.235Z,99700.44
2022-11-11T15:04:37.480Z,99701.84
2022-11-11T15:06:54.751Z,99694.50
2022-11-11T15:09:15.702Z,99683.50
2022-11-11T15:11:37.657Z,99680.66
2022-11-11T15:13:39.209Z,99683.25
2022-11-11T15:16:04.854Z,99678.44
2022-11-11T15:18:18.296Z,99667.94
2022-11-11T15:20:36.336Z,99671.97
2022-11-11T15:22:53.846Z,99655.81
2022-11-11T15:25:20.175Z,99652.72
2022-11-11T15:27:29.725Z,99655.28
2022-11-11T15:29:47.412Z,99644.50
2022-11-11T15:32:16.147Z,99658.69
2022-11-11T15:34:40.797Z,99647.94
2022-11-11T15:36:51.364Z,99651.63
2022-11-11T15:38:53.121Z,99644.97
2022-11-11T15:40:59.820Z,99643.00
2022-11-11T15:43:02.044Z,99639.84
2022-11-11T15:45:19.419Z,99645.41
2022-11-11T15:47:21.267Z,99653.75
2022-11-11T15:49:44.935Z,99647.66
2022-11-11T15:51:46.621Z,99651.06
2022-11-11T15:53:48.991Z,99652.53
2022-11-11T15:55:57.559Z,99669.41
2022-11-11T15:58:29.755Z,99669.81
2022-11-11T16:00:32.025Z,99664.16
2022-11-11T16:02:36.762Z,99686.09
2022-11-11T16:04:55.700Z,99683.19
2022-11-11T16:06:57.939Z,99687.91
2022-11-11T16:08:59.837Z,99688.97
2022-11-11T16:11:01.573Z,99683.75
2022-11-11T16:13:16.104Z,99684.78
2022-11-11T16:15:30.983Z,99694.00
2022-11-11T16:17:37.692Z,99699.28
2022-11-11T16:19:43.488Z,99690.13
2022-11-11T16:21:51.011Z,99696.13
2022-11-11T16:23:52.769Z,99689.56
2022-11-11T16:25:54.489Z,99684.81
2022-11-11T16:27:57.387Z,99682.50
2022-11-11T16:30:16.223Z,99682.03
2022-11-11T16:32:24.258Z,99680.69
2022-11-11T16:34:28.645Z,99683.75
2022-11-11T16:36:30.118Z,99673.25
2022-11-11T16:38:32.662Z,99670.09
2022-11-11T16:40:38.086Z,99664.09
2022-11-11T16:42:39.735Z,99655.44
2022-11-11T16:44:48.013Z,99653.88
2022-11-11T16:47:27.909Z,99656.88
2022-11-11T16:50:07.267Z,99645.41
2022-11-11T16:52:09.081Z,99631.34
2022-11-11T16:54:15.041Z,99622.56
2022-11-11T16:56:23.545Z,99620.97
2022-11-11T16:58:49.739Z,99616.84
2022-11-11T17:00:51.501Z,99609.75
2022-11-11T17:03:11.576Z,99611.72
2022-11-11T17:05:13.355Z,99613.66
2022-11-11T17:07:35.981Z,99609.41
2022-11-11T17:09:40.975Z,99609.53
2022-11-11T17:11:43.690Z,99605.13
2022-11-11T17:13:45.599Z,99603.44
2022-11-11T17:15:47.356Z,99608.06
2022-11-11T17:17:48.981Z,99608.19
2022-11-11T17:19:54.247Z,99605.63
2022-11-11T17:21:56.562Z,99599.53
2022-11-11T17:23:59.137Z,99602.22
2022-11-11T17:26:00.900Z,99618.31
2022-11-11T17:28:02.943Z,99600.50
2022-11-11T17:30:05.202Z,99607.81
2022-11-11T17:32:06.937Z,99607.81
2022-11-11T17:34:11.436Z,99595.38
2022-11-11T17:36:13.193Z,99600.75
2022-11-11T17:38:14.882Z,99593.91
2022-11-11T17:40:16.629Z,99593.91
2022-11-11T17:42:18.337Z,99588.69
2022-11-11T17:44:20.158Z,99588.78
2022-11-11T17:46:21.846Z,99584.41
2022-11-11T17:48:23.542Z,99580.00
2022-11-11T17:50:25.258Z,99579.16
2022-11-11T17:52:27.057Z,99584.63
2022-11-11T17:54:28.917Z,99584.63
2022-11-11T17:56:30.923Z,99581.09
2022-11-11T17:58:40.773Z,99578.44
2022-11-11T18:00:44.609Z,99578.53
2022-11-11T18:02:46.218Z,99583.06
2022-11-11T18:04:47.852Z,99576.00
2022-11-11T18:06:49.878Z,99567.06
2022-11-11T18:08:51.586Z,99573.41
2022-11-11T18:10:53.217Z,99566.34
2022-11-11T18:12:54.841Z,99573.53
2022-11-11T18:14:56.601Z,99570.00
2022-11-11T18:16:58.285Z,99560.25
2022-11-11T18:18:59.968Z,99561.22
2022-11-11T18:21:03.055Z,99552.22
2022-11-11T18:23:04.875Z,99548.78
2022-11-11T18:25:06.799Z,99548.69
2022-11-11T18:27:08.558Z,99553.06
2022-11-11T18:29:10.665Z,99550.25
2022-11-11T18:31:13.280Z,99539.53
2022-11-11T18:33:15.077Z,99537.53
2022-11-11T18:35:16.816Z,99548.28
2022-11-11T18:37:18.476Z,99535.84
2022-11-11T18:39:20.246Z,99541.22
2022-11-11T18:41:22.404Z,99544.91
2022-11-11T18:43:24.442Z,99534.16
2022-11-11T18:45:26.745Z,99545.84
2022-11-11T18:47:28.388Z,99546.84
2022-11-11T18:49:30.054Z,99538.06
2022-11-11T18:51:33.463Z,99540.75
2022-11-11T18:53:36.163Z,99534.63
2022-11-11T18:55:37.915Z,99521.34
2022-11-11T18:57:39.623Z,99536.59
2022-11-11T18:59:41.315Z,99509.88
2022-11-11T19:01:43.007Z,99511.97
2022-11-11T19:03:44.666Z,99512.91
2022-11-11T19:05:46.407Z,99506.84
2022-11-11T19:07:48.288Z,99514.16
2022-11-11T19:09:49.969Z,99505.38
2022-11-11T19:11:51.709Z,99509.91
2022-11-11T19:13:53.558Z,99503.88
2022-11-11T19:15:56.283Z,99519.97
2022-11-11T19:17:57.933Z,99512.91
2022-11-11T19:19:59.675Z,99493.41
2022-11-11T19:22:01.318Z,99501.56
2022-11-11T19:24:03.648Z,99488.28
2022-11-11T19:26:05.543Z,99502.66
2022-11-11T19:28:07.293Z,99484.88
2022-11-11T19:30:11.447Z,99484.88
2022-11-11T19:32:13.219Z,99474.25
2022-11-11T19:34:14.901Z,99470.72
2022-11-11T19:36:18.095Z,99461.94
2022-11-11T19:38:19.841Z,99467.31
2022-11-11T19:40:21.553Z,99473.63
2022-11-11T19:42:23.212Z,99466.56
2022-11-11T19:44:24.975Z,99470.09
2022-11-11T19:46:27.744Z,99446.94
2022-11-11T19:48:29.526Z,99454.16
2022-11-11T19:50:31.225Z,99452.44
2022-11-11T19:52:33.069Z,99448.06
2022-11-11T19:54:34.760Z,99446.31
2022-11-11T19:56:36.464Z,99439.16
2022-11-11T19:58:38.554Z,99434.75
2022-11-11T20:00:40.216Z,99425.97
2022-11-11T20:02:43.859Z,99432.19
2022-11-11T20:04:46.776Z,99432.19
2022-11-11T20:06:48.571Z,99413.56
2022-11-11T20:08:50.474Z,99418.06
2022-11-11T20:10:52.273Z,99422.56
2022-11-11T20:12:54.015Z,99412.81
2022-11-11T20:14:55.834Z,99412.81
2022-11-11T20:16:57.707Z,99427.19
2022-11-11T20:18:59.749Z,99418.44
2022-11-11T20:21:02.720Z,99410.41
2022-11-11T20:23:05.788Z,99398.78
2022-11-11T20:25:07.687Z,99399.66
2022-11-11T20:27:09.465Z,99383.69
2022-11-11T20:29:11.216Z,99380.16
2022-11-11T20:31:14.925Z,99389.91
2022-11-11T20:33:16.583Z,99381.00
2022-11-11T20:35:18.322Z,99368.72
2022-11-11T20:37:20.160Z,99361.50
2022-11-11T20:39:21.839Z,99366.03
2022-11-11T20:41:23.585Z,99358.09
2022-11-11T20:43:25.499Z,99353.59
2022-11-11T20:45:27.669Z,99365.28
2022-11-11T20:47:34.156Z,99366.03
2022-11-11T20:49:36.166Z,99342.00
2022-11-11T20:51:37.842Z,99358.09
2022-11-11T20:53:39.639Z,99349.22
2022-11-11T20:55:41.387Z,99344.69
2022-11-11T20:57:43.146Z,99349.22
2022-11-11T20:59:44.863Z,99358.09
2022-11-11T21:01:46.667Z,99351.03
2022-11-11T21:03:48.434Z,99356.41
2022-11-11T21:05:50.116Z,99370.66
2022-11-11T21:07:51.826Z,99356.41
2022-11-11T21:09:53.500Z,99356.41
2022-11-11T21:11:55.189Z,99340.44
2022-11-11T21:13:57.481Z,99351.16
2022-11-11T21:16:19.225Z,99345.91
2022-11-11T21:18:20.875Z,99339.69
2022-11-11T21:20:22.684Z,99356.78
2022-11-11T21:22:24.455Z,99349.56
2022-11-11T21:24:26.219Z,99343.38
2022-11-11T21:26:28.042Z,99343.38
2022-11-11T21:28:31.908Z,99334.47
2022-11-11T21:30:33.648Z,99326.44
2022-11-11T21:32:35.345Z,99314.00
2022-11-11T21:34:37.095Z,99321.19
2022-11-11T21:36:40.636Z,99302.44
2022-11-11T21:38:42.295Z,99313.16
2022-11-11T21:40:44.055Z,99317.66
2022-11-11T21:42:45.745Z,99313.25
2022-11-11T21:44:47.467Z,99324.00
2022-11-11T21:46:49.272Z,99315.09
2022-11-11T21:48:51.332Z,99300.00
2022-11-11T21:50:53.116Z,99279.41
2022-11-11T21:52:54.827Z,99282.09
2022-11-11T21:54:56.536Z,99289.13
2022-11-11T21:56:58.225Z,99281.09
2022-11-11T21:59:01.540Z,99296.22
2022-11-11T22:01:18.028Z,99279.28
2022-11-11T22:03:19.742Z,99274.78
2022-11-11T22:05:21.415Z,99286.34
2022-11-11T22:07:23.132Z,99278.19
2022-11-11T22:09:24.847Z,99276.47
2022-11-11T22:11:28.170Z,99259.53
2022-11-11T22:13:30.354Z,99264.91
2022-11-11T22:15:32.092Z,99256.75
2022-11-11T22:17:33.771Z,99261.13
2022-11-11T22:19:35.470Z,99267.31
2022-11-11T22:21:38.370Z,99262.69
2022-11-11T22:23:40.122Z,99262.69
2022-11-11T22:25:41.839Z,99254.66
2022-11-11T22:27:43.504Z,99251.13
2022-11-11T22:29:45.192Z,99259.16
2022-11-11T22:31:46.914Z,99261.84
2022-11-11T22:33:52.510Z,99265.47
2022-11-11T22:35:57.529Z,99262.81
2022-11-11T22:37:59.231Z,99250.28
2022-11-11T22:40:00.893Z,99243.09
2022-11-11T22:42:02.631Z,99234.03
2022-11-11T22:44:04.591Z,99228.69
2022-11-11T22:46:06.281Z,99235.03
2022-11-11T22:48:08.088Z,99237.84
2022-11-11T22:50:09.851Z,99247.72
2022-11-11T22:52:11.497Z,99259.28
2022-11-11T22:54:18.277Z,99259.28
2022-11-11T22:56:19.963Z,99247.72
2022-11-11T22:58:21.647Z,99249.41
2022-11-11T23:00:23.306Z,99261.97
2022-11-11T23:02:25.120Z,99247.72
2022-11-11T23:04:26.879Z,99252.22
2022-11-11T23:06:32.951Z,99269.16
2022-11-11T23:08:34.718Z,99261.22
2022-11-11T23:10:36.433Z,99256.84
2022-11-11T23:12:38.137Z,99260.53
2022-11-11T23:14:39.827Z,99264.91
2022-11-11T23:16:41.608Z,99258.69
2022-11-11T23:18:43.486Z,99258.44
2022-11-11T23:20:59.618Z,99265.63
2022-11-11T23:23:01.393Z,99270.84
2022-11-11T23:25:04.693Z,99266.38
2022-11-11T23:27:06.401Z,99277.09
2022-11-11T23:29:08.199Z,99277.94
2022-11-11T23:31:14.491Z,99268.91
2022-11-11T23:33:16.281Z,99266.22
2022-11-11T23:35:17.910Z,99271.56
2022-11-11T23:37:19.561Z,99268.06
2022-11-11T23:39:21.217Z,99268.91
2022-11-11T23:41:22.864Z,99266.22
2022-11-11T23:43:25.348Z,99265.25
2022-11-11T23:45:27.002Z,99263.41
2022-11-11T23:47:28.687Z,99274.16
2022-11-11T23:49:30.483Z,99266.94
2022-11-11T23:51:32.219Z,99259.75
2022-11-11T23:53:33.937Z,99250.88
2022-11-11T23:55:35.751Z,99257.06
2022-11-11T23:57:37.547Z,99248.91
2022-11-11T23:59:39.287Z,99241.72
